Time;durP1;ratioP1;P1;durP2;ratioP2;P2;SDS_P1;SDS_P2;PMS_P1;PMS_P2;Temp;Humidity;BMP_temperature;BMP_pressure;BME280_temperature;BME280_humidity;BME280_pressure;Samples;Min_cycle;Max_cycle;Signal;HPM_P1;HPM_P2
2021/04/13 00:02:19;;;;;;;7.32;5.60;;;3.20;1.00;;;;;;5069927;28;20253;-72
2021/04/13 00:04:48;;;;;;;5.80;4.90;;;3.10;1.00;;;;;;5071381;28;20207;-71
2021/04/13 00:07:15;;;;;;;6.40;5.80;;;3.10;1.00;;;;;;5067440;28;20728;-71
2021/04/13 00:09:44;;;;;;;10.52;6.38;;;3.00;1.00;;;;;;5071236;28;20187;-73
2021/04/13 00:12:28;;;;;;;7.95;5.90;;;3.00;1.00;;;;;;5066841;28;20656;-73
2021/04/13 00:15:08;;;;;;;9.05;6.10;;;3.00;1.00;;;;;;5067376;28;20240;-73
2021/04/13 00:17:33;;;;;;;6.78;5.35;;;2.90;4.20;;;;;;5069836;28;20230;-72
2021/04/13 00:20:20;;;;;;;6.83;6.00;;;2.90;5.70;;;;;;5070558;28;20518;-73
2021/04/13 00:22:47;;;;;;;6.78;5.45;;;2.90;7.50;;;;;;5067982;28;20322;-73
2021/04/13 00:25:29;;;;;;;8.07;6.35;;;2.90;8.70;;;;;;5068310;28;20243;-74
2021/04/13 00:27:54;;;;;;;7.10;5.57;;;2.80;10.30;;;;;;5067658;28;20276;-74
2021/04/13 00:30:25;;;;;;;10.10;6.13;;;2.80;11.80;;;;;;5066571;28;20303;-72
2021/04/13 00:33:01;;;;;;;6.00;5.30;;;2.80;14.00;;;;;;5071331;28;20172;-73
2021/04/13 00:35:33;;;;;;;6.63;5.90;;;2.80;14.80;;;;;;5072041;28;20183;-73
2021/04/13 00:38:38;;;;;;;6.85;5.75;;;2.70;16.20;;;;;;5069278;28;20258;-72
2021/04/13 00:41:27;;;;;;;7.80;6.05;;;2.70;19.60;;;;;;5067961;28;20256;-74
2021/04/13 00:43:58;;;;;;;8.63;5.68;;;2.70;22.60;;;;;;5063737;28;20220;-73
2021/04/13 00:46:35;;;;;;;8.25;6.10;;;2.60;23.30;;;;;;5068816;28;20680;-73
2021/04/13 00:49:02;;;;;;;6.80;5.85;;;2.60;24.90;;;;;;5068789;28;20184;-73
2021/04/13 00:51:34;;;;;;;7.22;5.90;;;2.50;29.30;;;;;;5068184;28;20213;-73
2021/04/13 00:54:04;;;;;;;12.70;6.07;;;2.50;33.40;;;;;;5066946;28;20180;-73
2021/04/13 00:56:31;;;;;;;7.05;5.57;;;2.50;35.90;;;;;;5069579;28;20203;-73
2021/04/13 00:59:18;;;;;;;7.70;5.80;;;2.50;35.20;;;;;;5068768;28;20546;-73
2021/04/13 01:01:54;;;;;;;8.20;6.78;;;2.40;37.70;;;;;;5071937;28;20235;-72
2021/04/13 01:04:28;;;;;;;7.32;5.82;;;2.40;39.00;;;;;;5071801;28;20184;-73
2021/04/13 01:07:05;;;;;;;11.98;6.50;;;2.40;41.70;;;;;;5070630;28;20219;-74
2021/04/13 01:09:30;;;;;;;9.07;6.22;;;2.40;42.50;;;;;;5071810;28;20693;-73
2021/04/13 01:12:04;;;;;;;12.77;6.37;;;2.30;46.20;;;;;;5072239;28;20262;-74
2021/04/13 01:14:31;;;;;;;8.38;6.07;;;2.30;50.60;;;;;;5071745;28;20194;-73
2021/04/13 01:17:06;;;;;;;11.32;6.40;;;2.30;51.00;;;;;;5072001;28;20185;-73
2021/04/13 01:19:57;;;;;;;8.15;6.25;;;2.30;51.90;;;;;;5065187;28;20295;-74
2021/04/13 01:22:37;;;;;;;10.48;6.30;;;2.30;52.50;;;;;;5078599;28;20197;-74
2021/04/13 01:25:09;;;;;;;8.70;6.65;;;2.30;52.70;;;;;;5072134;28;20188;-74
2021/04/13 01:27:35;;;;;;;7.10;6.32;;;2.30;51.50;;;;;;5058383;28;20633;-73
2021/04/13 01:30:09;;;;;;;7.13;6.15;;;2.30;52.10;;;;;;5071902;28;20183;-74
2021/04/13 01:32:35;;;;;;;10.23;7.32;;;2.30;52.90;;;;;;5072422;28;20210;-73
2021/04/13 01:35:03;;;;;;;10.23;6.50;;;2.20;53.60;;;;;;5088452;28;20219;-73
2021/04/13 01:40:41;;;;;;;9.63;6.63;;;2.20;56.40;;;;;;5066587;28;20329;-72
2021/04/13 01:43:08;;;;;;;6.05;5.45;;;2.20;56.90;;;;;;5072032;28;20180;-72
2021/04/13 01:45:35;;;;;;;9.02;6.93;;;2.20;57.60;;;;;;5071663;28;20218;-73
2021/04/13 01:48:02;;;;;;;10.00;6.53;;;2.20;57.30;;;;;;5079210;28;20665;-73
2021/04/13 01:50:32;;;;;;;8.02;6.40;;;2.10;58.50;;;;;;5071567;28;20211;-73
2021/04/13 01:53:19;;;;;;;8.55;6.80;;;2.10;60.00;;;;;;5057445;28;20180;-73
2021/04/13 01:55:59;;;;;;;11.10;7.20;;;2.00;60.00;;;;;;5071570;28;20184;-73
2021/04/13 01:58:37;;;;;;;9.20;6.55;;;2.00;60.90;;;;;;5071892;28;20185;-73
2021/04/13 02:01:25;;;;;;;8.80;7.40;;;2.00;61.00;;;;;;5067124;28;20220;-72
2021/04/13 02:04:09;;;;;;;8.98;6.38;;;1.90;59.70;;;;;;5069730;28;20241;-73
2021/04/13 02:06:58;;;;;;;8.10;6.40;;;1.90;62.60;;;;;;5070939;28;20208;-74
2021/04/13 02:09:37;;;;;;;7.50;6.18;;;1.80;63.10;;;;;;5069826;28;20188;-72
2021/04/13 02:12:15;;;;;;;7.80;6.72;;;1.80;66.50;;;;;;5070892;28;20172;-73
2021/04/13 02:14:59;;;;;;;9.25;6.65;;;1.80;72.60;;;;;;5065330;28;20263;-73
2021/04/13 02:17:40;;;;;;;9.68;6.72;;;1.80;77.00;;;;;;5071731;28;20665;-73
2021/04/13 02:20:12;;;;;;;8.95;7.43;;;1.80;79.20;;;;;;5070977;28;20195;-73
2021/04/13 02:22:46;;;;;;;9.68;7.22;;;1.70;84.90;;;;;;5071076;28;20195;-72
2021/04/13 02:25:22;;;;;;;10.98;7.05;;;1.70;87.90;;;;;;5070978;28;20207;-74
2021/04/13 02:27:49;;;;;;;9.75;7.22;;;1.70;92.40;;;;;;5071138;28;20203;-73
2021/04/13 02:30:26;;;;;;;8.95;7.50;;;1.80;94.50;;;;;;5071042;28;20191;-72
2021/04/13 02:32:52;;;;;;;9.52;7.95;;;1.70;94.20;;;;;;5067678;28;20214;-73
2021/04/13 02:35:23;;;;;;;8.30;7.07;;;1.70;95.00;;;;;;5083393;28;20199;-73
2021/04/13 02:38:01;;;;;;;9.35;7.05;;;1.70;96.70;;;;;;5071488;28;20189;-73
2021/04/13 02:40:47;;;;;;;8.45;6.78;;;1.70;97.00;;;;;;5063574;28;20707;-73
2021/04/13 02:43:26;;;;;;;9.80;7.10;;;1.60;96.10;;;;;;5067803;28;20939;-74
2021/04/13 02:45:55;;;;;;;10.30;7.60;;;1.60;97.00;;;;;;5070089;28;20192;-73
2021/04/13 02:48:27;;;;;;;9.20;7.63;;;1.60;96.50;;;;;;5072822;28;20198;-73
2021/04/13 02:51:01;;;;;;;9.60;7.30;;;1.60;95.80;;;;;;5070303;28;20648;-73
2021/04/13 02:53:35;;;;;;;10.88;7.93;;;1.50;98.80;;;;;;5069945;28;20184;-73
2021/04/13 02:56:03;;;;;;;8.57;6.75;;;1.50;98.20;;;;;;5071402;28;20180;-74
2021/04/13 02:58:38;;;;;;;8.63;7.15;;;1.50;98.60;;;;;;5070793;28;20188;-74
2021/04/13 03:01:04;;;;;;;11.07;7.70;;;1.50;98.60;;;;;;5067247;28;20702;-74
2021/04/13 03:03:37;;;;;;;8.65;7.20;;;1.50;98.90;;;;;;5062733;28;20195;-74
2021/04/13 03:06:05;;;;;;;9.63;8.00;;;1.50;99.90;;;;;;5070273;28;20199;-73
2021/04/13 03:08:38;;;;;;;10.45;7.07;;;1.50;99.90;;;;;;5069278;28;20594;-74
2021/04/13 03:11:12;;;;;;;9.15;7.88;;;1.50;99.90;;;;;;5068574;28;20268;-73
2021/04/13 03:13:39;;;;;;;10.60;7.88;;;1.50;99.90;;;;;;5062507;28;20654;-73
2021/04/13 03:16:06;;;;;;;11.45;8.45;;;1.50;99.90;;;;;;5057792;28;20190;-74
2021/04/13 03:18:46;;;;;;;10.60;7.63;;;1.50;99.90;;;;;;5069960;28;20188;-73
2021/04/13 03:21:23;;;;;;;8.77;7.15;;;1.50;99.90;;;;;;5058827;28;20236;-74
2021/04/13 03:23:52;;;;;;;8.52;7.53;;;1.50;99.90;;;;;;5070436;28;20183;-74
2021/04/13 03:26:36;;;;;;;9.32;7.45;;;1.50;99.90;;;;;;5068127;28;20204;-75
2021/04/13 03:29:15;;;;;;;9.65;7.57;;;1.50;99.90;;;;;;5052475;28;20189;-75
2021/04/13 03:31:41;;;;;;;11.57;7.85;;;1.50;99.90;;;;;;5070812;28;20180;-74
2021/04/13 03:34:07;;;;;;;10.15;7.50;;;1.50;99.90;;;;;;5068498;28;20177;-74
2021/04/13 03:36:34;;;;;;;9.40;8.17;;;1.60;99.90;;;;;;5069986;28;20265;-74
2021/04/13 03:39:17;;;;;;;10.82;8.05;;;1.60;99.90;;;;;;5071169;28;20419;-74
2021/04/13 03:41:46;;;;;;;11.88;8.80;;;1.60;99.90;;;;;;5073490;28;20267;-73
2021/04/13 03:44:16;;;;;;;11.25;8.52;;;1.60;99.90;;;;;;5068573;28;20649;-73
2021/04/13 03:46:41;;;;;;;11.45;8.52;;;1.70;99.90;;;;;;5070401;28;20286;-73
2021/04/13 03:49:14;;;;;;;9.73;8.13;;;1.70;99.90;;;;;;5068683;28;20283;-73
2021/04/13 03:51:44;;;;;;;11.90;8.32;;;1.70;99.90;;;;;;5070367;28;20932;-74
2021/04/13 03:54:25;;;;;;;11.63;8.30;;;1.70;99.90;;;;;;5068140;28;20175;-74
2021/04/13 03:56:52;;;;;;;8.50;7.57;;;1.70;99.90;;;;;;5077449;28;20187;-73
2021/04/13 03:59:21;;;;;;;10.50;8.20;;;1.70;99.90;;;;;;5067895;28;20179;-73
2021/04/13 04:01:47;;;;;;;11.20;8.95;;;1.70;99.90;;;;;;5067141;28;20225;-74
2021/04/13 04:04:33;;;;;;;12.27;8.05;;;1.70;99.90;;;;;;5069458;28;20188;-73
2021/04/13 04:07:26;;;;;;;10.82;9.00;;;1.70;99.90;;;;;;5068658;28;20224;-74
2021/04/13 04:09:52;;;;;;;12.90;9.20;;;1.80;99.90;;;;;;5054385;28;20184;-74
2021/04/13 04:12:21;;;;;;;12.77;9.33;;;1.70;99.90;;;;;;5075163;28;20188;-73
2021/04/13 04:14:59;;;;;;;12.27;9.70;;;1.70;99.90;;;;;;5069428;28;20172;-73
2021/04/13 04:17:27;;;;;;;10.80;8.70;;;1.70;99.90;;;;;;5068431;28;20189;-73
2021/04/13 04:20:03;;;;;;;15.25;9.32;;;1.70;99.90;;;;;;5069280;28;20184;-72
2021/04/13 04:22:30;;;;;;;14.93;9.43;;;1.70;99.90;;;;;;5068997;28;20179;-72
2021/04/13 04:25:30;;;;;;;12.75;9.75;;;1.70;99.90;;;;;;5068174;28;20176;-73
2021/04/13 04:28:00;;;;;;;10.88;8.90;;;1.70;99.90;;;;;;5051435;28;20222;-72
2021/04/13 04:30:34;;;;;;;15.00;9.82;;;1.70;99.90;;;;;;5067299;28;20180;-72
2021/04/13 04:33:03;;;;;;;10.85;9.05;;;1.80;99.90;;;;;;5068099;28;20220;-72
2021/04/13 04:35:39;;;;;;;12.43;10.10;;;1.80;99.90;;;;;;5069527;28;20176;-72
2021/04/13 04:38:24;;;;;;;12.75;9.05;;;1.90;99.90;;;;;;5068247;28;20182;-71
2021/04/13 04:40:50;;;;;;;14.88;10.27;;;1.90;99.90;;;;;;5071974;28;20192;-72
2021/04/13 04:43:18;;;;;;;17.93;10.40;;;1.90;99.90;;;;;;5066336;28;20704;-71
2021/04/13 04:45:43;;;;;;;16.92;11.60;;;1.90;99.90;;;;;;5067933;28;20638;-73
2021/04/13 04:48:24;;;;;;;11.53;9.87;;;2.00;99.90;;;;;;5068717;28;20184;-71
2021/04/13 04:50:51;;;;;;;14.52;10.90;;;2.00;99.90;;;;;;5071268;28;20211;-73
2021/04/13 04:53:19;;;;;;;13.32;10.63;;;2.10;99.90;;;;;;5068218;28;20272;-73
2021/04/13 04:55:53;;;;;;;13.70;10.10;;;2.10;99.90;;;;;;5068862;28;20248;-73
2021/04/13 04:58:20;;;;;;;11.43;10.15;;;2.20;99.90;;;;;;5069523;28;20170;-72
2021/04/13 05:00:50;;;;;;;13.68;10.60;;;2.20;99.90;;;;;;5067031;28;20614;-72
2021/04/13 05:03:17;;;;;;;15.38;11.50;;;2.30;99.90;;;;;;5069501;28;20185;-72
2021/04/13 05:05:43;;;;;;;14.63;10.45;;;2.30;99.90;;;;;;5068871;28;20287;-72
2021/04/13 05:08:09;;;;;;;14.83;10.80;;;2.30;99.90;;;;;;5066418;28;20267;-71
2021/04/13 05:10:35;;;;;;;16.38;11.68;;;2.30;99.90;;;;;;5068120;28;20185;-71
2021/04/13 05:13:00;;;;;;;15.77;11.37;;;2.30;99.90;;;;;;5069188;28;20233;-72
2021/04/13 05:15:26;;;;;;;16.03;11.90;;;2.40;99.90;;;;;;5068983;28;20425;-72
2021/04/13 05:17:52;;;;;;;13.47;11.00;;;2.50;99.90;;;;;;5068695;28;20184;-72
2021/04/13 05:20:18;;;;;;;13.50;11.50;;;2.50;99.90;;;;;;5069317;28;20180;-71
2021/04/13 05:22:43;;;;;;;15.32;11.35;;;2.60;99.90;;;;;;5068464;28;20183;-73
2021/04/13 05:25:11;;;;;;;18.63;11.90;;;2.60;99.90;;;;;;5069127;28;20652;-72
2021/04/13 05:27:36;;;;;;;17.42;13.15;;;2.70;99.90;;;;;;5067824;28;20903;-72
2021/04/13 05:30:04;;;;;;;14.40;12.07;;;2.80;99.90;;;;;;5067405;28;20177;-71
2021/04/13 05:32:29;;;;;;;17.10;12.43;;;2.90;99.90;;;;;;5068565;28;20184;-73
2021/04/13 05:34:55;;;;;;;15.40;12.70;;;3.00;99.90;;;;;;5067433;28;20177;-73
2021/04/13 05:37:20;;;;;;;13.40;11.40;;;3.00;99.90;;;;;;5069103;28;20177;-72
2021/04/13 05:39:46;;;;;;;14.40;11.80;;;3.10;99.90;;;;;;5073519;28;20192;-72
2021/04/13 05:42:29;;;;;;;17.83;10.83;;;3.20;99.90;;;;;;5069339;28;20185;-69
2021/04/13 05:44:56;;;;;;;13.68;10.63;;;3.30;99.90;;;;;;5077334;28;20188;-68
2021/04/13 05:47:23;;;;;;;13.95;10.98;;;3.50;99.90;;;;;;5079127;28;20240;-70
2021/04/13 05:49:49;;;;;;;12.18;10.80;;;3.60;99.90;;;;;;5072173;28;20173;-70
2021/04/13 05:52:14;;;;;;;14.40;11.53;;;3.60;96.00;;;;;;5080549;28;20610;-69
2021/04/13 05:54:40;;;;;;;15.17;10.53;;;3.70;94.50;;;;;;5072213;28;20648;-69
2021/04/13 05:57:08;;;;;;;12.43;10.73;;;3.80;85.90;;;;;;5071157;28;20643;-69
2021/04/13 05:59:34;;;;;;;14.52;11.07;;;3.90;79.00;;;;;;5070949;28;20281;-69
2021/04/13 06:02:03;;;;;;;13.00;10.57;;;4.10;69.40;;;;;;5072291;28;20299;-70
2021/04/13 06:04:28;;;;;;;15.02;11.65;;;4.20;60.10;;;;;;5069496;28;20203;-75
2021/04/13 06:06:54;;;;;;;14.07;11.40;;;4.30;52.50;;;;;;5071443;28;20225;-75
2021/04/13 06:09:20;;;;;;;11.10;9.90;;;4.40;44.90;;;;;;5072239;28;20192;-75
2021/04/13 06:11:46;;;;;;;12.55;9.90;;;4.60;30.40;;;;;;5071541;28;20880;-75
2021/04/13 06:14:13;;;;;;;14.10;9.80;;;4.70;21.60;;;;;;5071502;28;20627;-75
2021/04/13 06:16:40;;;;;;;11.52;10.05;;;4.70;18.60;;;;;;5071467;28;20964;-75
2021/04/13 06:19:07;;;;;;;12.23;9.63;;;4.80;12.20;;;;;;5071678;28;20183;-75
2021/04/13 06:21:33;;;;;;;10.60;9.50;;;4.90;8.60;;;;;;5071666;28;20181;-75
2021/04/13 06:23:59;;;;;;;10.73;9.60;;;5.00;1.00;;;;;;5071559;28;20774;-77
2021/04/13 06:26:26;;;;;;;11.03;9.47;;;5.10;1.00;;;;;;5071494;28;20200;-75
2021/04/13 06:28:51;;;;;;;12.10;10.10;;;5.30;1.00;;;;;;5071537;28;20217;-75
2021/04/13 06:31:17;;;;;;;11.20;10.10;;;5.40;1.00;;;;;;5071404;28;20197;-75
2021/04/13 06:33:43;;;;;;;10.07;8.97;;;5.40;1.00;;;;;;5071509;28;20793;-75
2021/04/13 06:36:08;;;;;;;10.37;9.13;;;5.50;1.00;;;;;;5071321;28;20655;-75
2021/04/13 06:38:38;;;;;;;11.93;9.47;;;5.50;1.00;;;;;;5069798;28;20177;-76
2021/04/13 06:41:45;;;;;;;10.43;9.30;;;5.60;1.00;;;;;;5062866;28;20918;-75
2021/04/13 06:44:35;;;;;;;12.35;10.95;;;5.50;1.00;;;;;;5061104;28;20185;-77
2021/04/13 06:47:17;;;;;;;11.32;9.77;;;5.70;1.00;;;;;;5079496;28;20201;-75
2021/04/13 06:50:04;;;;;;;9.77;8.77;;;5.80;1.00;;;;;;5075544;28;20197;-70
2021/04/13 06:53:03;;;;;;;10.90;9.80;;;5.70;1.00;;;;;;5067350;28;20161;-71
2021/04/13 06:55:50;;;;;;;11.38;10.18;;;5.80;1.00;;;;;;5057901;28;20529;-72
2021/04/13 06:58:54;;;;;;;11.43;9.98;;;5.80;1.00;;;;;;5070807;28;20272;-78
2021/04/13 07:01:49;;;;;;;10.85;9.30;;;5.70;1.00;;;;;;5041746;28;20225;-78
2021/04/13 07:04:28;;;;;;;10.55;9.30;;;5.80;1.00;;;;;;5078560;28;20814;-78
2021/04/13 07:07:26;;;;;;;12.13;10.10;;;5.80;1.00;;;;;;5067044;28;20741;-70
2021/04/13 07:10:24;;;;;;;10.07;8.93;;;5.80;1.00;;;;;;5065405;28;20849;-70
2021/04/13 07:13:20;;;;;;;10.60;9.50;;;5.80;1.00;;;;;;5079473;28;20193;-71
2021/04/13 07:16:01;;;;;;;11.18;9.60;;;5.90;1.00;;;;;;5042248;28;20197;-72
2021/04/13 07:18:55;;;;;;;11.20;9.30;;;6.10;1.00;;;;;;5062597;28;20182;-72
2021/04/13 07:21:27;;;;;;;11.98;10.05;;;6.10;1.00;;;;;;5069617;28;20256;-69
2021/04/13 07:24:13;;;;;;;12.30;10.07;;;6.20;1.00;;;;;;5068158;28;20817;-68
2021/04/13 07:26:44;;;;;;;11.45;9.82;;;6.20;99.90;;;;;;5068946;28;20205;-71
2021/04/13 07:29:27;;;;;;;9.63;8.65;;;6.10;1.00;;;;;;5062965;28;20644;-75
2021/04/13 07:32:05;;;;;;;11.90;9.65;;;6.10;99.90;;;;;;5069290;28;20514;-73
2021/04/13 07:34:32;;;;;;;10.38;9.38;;;6.20;1.00;;;;;;5067131;28;20186;-69
2021/04/13 07:37:06;;;;;;;13.40;10.23;;;6.30;99.90;;;;;;5067230;28;20786;-69
2021/04/13 07:39:33;;;;;;;10.32;9.30;;;6.40;99.90;;;;;;5069130;28;20227;-70
2021/04/13 07:42:08;;;;;;;12.27;10.10;;;6.50;99.90;;;;;;5068490;28;20178;-70
2021/04/13 07:44:52;;;;;;;12.07;10.77;;;6.60;99.90;;;;;;5068899;28;20197;-75
2021/04/13 07:47:38;;;;;;;11.63;10.43;;;6.80;1.00;;;;;;5057095;28;20843;-74
2021/04/13 07:50:06;;;;;;;11.50;9.70;;;7.00;99.90;;;;;;5064835;28;20416;-74
2021/04/13 07:52:50;;;;;;;10.63;9.37;;;7.10;1.00;;;;;;5075829;28;20187;-74
2021/04/13 07:55:26;;;;;;;11.67;10.57;;;7.40;1.00;;;;;;5070034;28;20414;-73
2021/04/13 07:58:20;;;;;;;10.57;9.47;;;7.50;1.00;;;;;;5070421;28;20425;-75
2021/04/13 08:00:52;;;;;;;10.80;9.70;;;7.60;99.90;;;;;;5068090;28;20432;-75
2021/04/13 08:03:31;;;;;;;12.03;9.97;;;7.50;99.90;;;;;;5066734;28;20438;-71
2021/04/13 08:06:22;;;;;;;10.87;9.77;;;7.70;99.90;;;;;;5056510;28;20465;-75
2021/04/13 08:08:48;;;;;;;10.57;9.57;;;7.80;99.90;;;;;;5061288;28;20479;-71
2021/04/13 08:11:38;;;;;;;12.07;10.87;;;7.80;99.90;;;;;;5067325;28;20426;-71
2021/04/13 08:14:20;;;;;;;10.47;9.23;;;7.80;99.90;;;;;;5006492;28;20440;-68
2021/04/13 08:16:46;;;;;;;12.00;10.10;;;7.90;1.00;;;;;;4990243;28;20582;-69
2021/04/13 08:19:33;;;;;;;10.57;9.57;;;8.00;1.00;;;;;;4989303;28;20971;-71
2021/04/13 08:22:28;;;;;;;10.03;9.03;;;8.00;1.00;;;;;;5006608;28;20422;-68
2021/04/13 08:24:56;;;;;;;10.33;9.00;;;8.20;1.00;;;;;;5005640;28;20452;-69
2021/04/13 08:27:46;;;;;;;10.20;9.30;;;8.20;99.90;;;;;;5005894;28;20465;-71
2021/04/13 08:30:26;;;;;;;10.03;9.10;;;8.10;99.90;;;;;;5006740;28;20457;-70
2021/04/13 08:33:09;;;;;;;10.40;9.30;;;8.00;99.90;;;;;;5006185;28;20431;-70
2021/04/13 08:36:00;;;;;;;12.17;9.27;;;8.00;99.90;;;;;;5005597;28;20771;-71
2021/04/13 08:38:38;;;;;;;9.37;8.57;;;8.00;99.90;;;;;;5006211;28;20422;-69
2021/04/13 08:41:11;;;;;;;10.23;9.23;;;8.10;99.90;;;;;;5006452;28;21003;-69
2021/04/13 08:43:49;;;;;;;9.97;9.07;;;8.50;99.90;;;;;;5006860;28;20436;-69
2021/04/13 08:46:35;;;;;;;9.50;8.60;;;8.70;99.90;;;;;;5022930;28;20553;-71
2021/04/13 08:49:21;;;;;;;10.20;9.30;;;9.00;13.20;;;;;;5005587;28;20410;-69
2021/04/13 08:51:50;;;;;;;10.57;8.90;;;9.20;1.00;;;;;;5055418;28;20426;-68
2021/04/13 08:54:29;;;;;;;11.33;8.20;;;9.50;1.00;;;;;;5069678;28;20427;-69
2021/04/13 08:57:17;;;;;;;8.73;7.90;;;9.70;1.00;;;;;;5064246;28;20410;-68
2021/04/13 08:59:50;;;;;;;9.53;7.40;;;9.80;1.00;;;;;;5067929;28;20418;-68
2021/04/13 09:02:28;;;;;;;8.63;7.93;;;10.20;1.00;;;;;;5067555;28;20534;-69
2021/04/13 09:05:08;;;;;;;7.50;6.90;;;10.40;1.00;;;;;;5065587;28;20518;-70
2021/04/13 09:07:46;;;;;;;8.00;7.40;;;10.60;1.00;;;;;;5057172;28;20426;-69
2021/04/13 09:11:02;;;;;;;7.83;7.23;;;11.10;1.00;;;;;;5064647;28;20419;-71
2021/04/13 09:13:37;;;;;;;10.10;7.53;;;11.40;1.00;;;;;;5025599;28;20418;-72
2021/04/13 09:16:03;;;;;;;7.97;7.27;;;11.50;1.00;;;;;;5009776;28;20473;-73
2021/04/13 09:18:37;;;;;;;6.67;6.17;;;11.70;99.90;;;;;;5008906;28;20418;-70
2021/04/13 09:21:26;;;;;;;6.67;6.17;;;11.80;99.90;;;;;;5010090;28;20237;-72
2021/04/13 09:24:15;;;;;;;7.53;7.00;;;11.60;99.90;;;;;;5013545;28;20471;-69
2021/04/13 09:27:02;;;;;;;7.63;7.03;;;11.10;99.90;;;;;;5029782;28;20901;-69
2021/04/13 09:29:43;;;;;;;7.87;7.17;;;10.60;99.90;;;;;;5019890;28;20436;-74
2021/04/13 09:32:23;;;;;;;7.37;6.80;;;10.70;99.90;;;;;;5009589;28;20410;-65
2021/04/13 09:34:52;;;;;;;7.27;6.67;;;10.90;99.90;;;;;;5018116;28;20456;-67
2021/04/13 09:37:30;;;;;;;7.73;6.70;;;10.90;99.90;;;;;;5027573;28;20416;-66
2021/04/13 09:40:21;;;;;;;7.47;6.80;;;10.80;99.90;;;;;;5010182;28;20503;-65
2021/04/13 09:42:53;;;;;;;7.30;6.70;;;11.40;99.90;;;;;;5018865;28;20991;-66
2021/04/13 09:45:43;;;;;;;7.30;6.60;;;11.80;99.90;;;;;;5012827;28;20436;-66
2021/04/13 09:48:27;;;;;;;7.03;6.53;;;12.40;99.90;;;;;;5019937;28;20479;-66
2021/04/13 09:50:58;;;;;;;7.40;6.80;;;12.30;99.90;;;;;;5067079;28;20430;-65
2021/04/13 09:53:43;;;;;;;7.10;6.50;;;11.80;99.90;;;;;;5089016;28;20402;-67
2021/04/13 09:56:35;;;;;;;7.07;6.40;;;11.50;99.90;;;;;;5086964;28;20422;-66
2021/04/13 09:59:19;;;;;;;7.10;6.50;;;11.30;99.90;;;;;;5078096;28;20463;-65
2021/04/13 10:02:15;;;;;;;6.60;6.00;;;12.20;99.90;;;;;;5070862;28;20455;-66
2021/04/13 10:04:59;;;;;;;7.23;6.50;;;13.10;99.90;;;;;;5062714;28;20412;-65
2021/04/13 10:07:30;;;;;;;5.60;5.20;;;13.60;99.90;;;;;;5070868;28;20476;-66
2021/04/13 10:09:58;;;;;;;5.87;5.40;;;13.60;99.90;;;;;;5071392;28;21032;-66
2021/04/13 10:12:49;;;;;;;5.70;5.30;;;13.70;99.90;;;;;;5070212;28;20421;-65
2021/04/13 10:15:53;;;;;;;5.70;5.30;;;12.90;99.90;;;;;;5071134;28;20427;-65
2021/04/13 10:19:08;;;;;;;5.90;5.40;;;12.50;99.90;;;;;;5068292;28;20981;-66
2021/04/13 10:21:52;;;;;;;5.30;5.00;;;12.80;99.90;;;;;;5071078;28;20804;-66
2021/04/13 10:24:39;;;;;;;5.50;5.10;;;12.10;99.90;;;;;;5068891;28;20459;-67
2021/04/13 10:27:21;;;;;;;5.07;4.67;;;12.00;99.90;;;;;;5070481;28;20502;-67
2021/04/13 10:30:21;;;;;;;4.00;3.70;;;12.70;99.90;;;;;;5070251;28;20799;-71
2021/04/13 10:33:25;;;;;;;4.43;4.13;;;13.20;99.90;;;;;;5070311;28;20446;-73
2021/04/13 10:36:18;;;;;;;4.43;4.13;;;13.90;99.90;;;;;;5069238;28;20552;-70
2021/04/13 10:39:09;;;;;;;5.70;5.30;;;14.50;99.90;;;;;;5057054;28;20421;-70
2021/04/13 10:42:05;;;;;;;5.57;5.17;;;15.00;99.90;;;;;;5062237;28;20470;-70
2021/04/13 10:44:55;;;;;;;5.40;5.00;;;14.60;99.90;;;;;;5070765;28;20415;-75
2021/04/13 10:48:10;;;;;;;5.60;5.30;;;14.10;99.90;;;;;;5070531;28;20489;-73
2021/04/13 10:51:07;;;;;;;5.80;5.40;;;13.20;99.90;;;;;;5027527;28;20690;-75
2021/04/13 10:53:51;;;;;;;5.53;5.13;;;12.60;99.90;;;;;;5025091;28;20434;-70
2021/04/13 10:56:54;;;;;;;5.73;5.33;;;12.20;99.90;;;;;;5032966;28;20448;-69
2021/04/13 10:59:51;;;;;;;6.30;5.70;;;11.90;99.90;;;;;;5027439;28;20424;-70
2021/04/13 11:02:40;;;;;;;5.63;5.23;;;12.30;99.90;;;;;;5026093;28;20467;-69
2021/04/13 11:05:32;;;;;;;5.27;4.87;;;12.80;99.90;;;;;;5023972;28;20525;-70
2021/04/13 11:08:34;;;;;;;5.37;4.87;;;13.10;99.90;;;;;;4995634;28;20440;-69
2021/04/13 11:11:03;;;;;;;5.90;5.50;;;13.10;99.90;;;;;;5023033;28;20482;-67
2021/04/13 11:13:43;;;;;;;5.93;5.53;;;13.50;99.90;;;;;;5018916;28;20437;-69
2021/04/13 11:16:41;;;;;;;5.73;5.23;;;13.90;99.90;;;;;;5006980;28;20519;-73
2021/04/13 11:19:24;;;;;;;4.70;4.30;;;13.80;99.90;;;;;;5021057;28;20833;-71
2021/04/13 11:21:52;;;;;;;4.97;4.57;;;13.20;99.90;;;;;;5007232;28;20423;-70
2021/04/13 11:24:52;;;;;;;5.07;4.67;;;13.00;99.90;;;;;;5019747;28;20797;-69
2021/04/13 11:27:44;;;;;;;5.17;4.80;;;12.90;99.90;;;;;;5024788;28;20539;-72
2021/04/13 11:30:25;;;;;;;4.90;4.60;;;13.80;99.90;;;;;;5023686;28;20494;-74
2021/04/13 11:32:56;;;;;;;8.97;4.30;;;14.00;99.90;;;;;;5033681;28;20517;-74
2021/04/13 11:35:41;;;;;;;4.00;3.80;;;13.90;99.90;;;;;;5040018;28;20417;-69
2021/04/13 11:38:33;;;;;;;4.80;4.33;;;13.70;99.90;;;;;;5040598;28;20983;-74
2021/04/13 11:41:18;;;;;;;4.83;4.50;;;13.50;99.90;;;;;;5029960;28;20415;-74
2021/04/13 11:43:50;;;;;;;4.17;3.90;;;14.10;99.90;;;;;;5041369;28;20446;-76
2021/04/13 11:46:28;;;;;;;4.30;4.00;;;14.20;99.90;;;;;;5037434;28;20557;-79
2021/04/13 11:49:12;;;;;;;4.77;4.33;;;13.90;99.90;;;;;;5037596;28;21153;-70
2021/04/13 11:52:00;;;;;;;4.40;4.10;;;13.90;99.90;;;;;;5036738;28;20418;-69
2021/04/13 11:54:47;;;;;;;4.40;4.20;;;14.10;99.90;;;;;;5037397;28;20759;-70
2021/04/13 11:57:22;;;;;;;5.13;4.73;;;13.70;99.90;;;;;;5033564;28;20454;-71
2021/04/13 12:00:10;;;;;;;4.70;4.30;;;13.50;99.90;;;;;;5033966;28;20444;-75
2021/04/13 12:02:38;;;;;;;4.27;3.97;;;13.50;99.90;;;;;;5049375;28;20473;-70
2021/04/13 12:05:05;;;;;;;4.03;3.73;;;13.70;99.90;;;;;;5069009;28;20496;-69
2021/04/13 12:07:47;;;;;;;5.13;3.80;;;14.20;99.90;;;;;;5066544;28;20525;-69
2021/04/13 12:10:26;;;;;;;5.43;4.00;;;14.10;99.90;;;;;;5069057;28;20427;-69
2021/04/13 12:12:52;;;;;;;4.73;4.43;;;14.00;99.90;;;;;;5067002;28;20426;-72
2021/04/13 12:15:20;;;;;;;5.10;4.00;;;13.80;99.90;;;;;;5066957;28;20539;-71
2021/04/13 12:17:54;;;;;;;4.83;4.50;;;13.60;99.90;;;;;;5068831;28;20443;-69
2021/04/13 12:23:06;;;;;;;4.07;3.77;;;13.60;99.90;;;;;;5068748;28;20431;-69
2021/04/13 12:25:41;;;;;;;3.83;3.53;;;13.50;99.90;;;;;;5066374;28;20457;-69
2021/04/13 12:28:15;;;;;;;3.53;3.33;;;13.60;99.90;;;;;;5068139;28;20529;-69
2021/04/13 12:30:44;;;;;;;3.90;3.60;;;13.60;99.90;;;;;;5067709;28;21003;-69
2021/04/13 12:33:28;;;;;;;4.17;3.63;;;13.90;99.90;;;;;;5067874;28;20423;-70
2021/04/13 12:36:08;;;;;;;3.90;3.37;;;13.90;99.90;;;;;;5064619;28;20454;-68
2021/04/13 12:38:42;;;;;;;3.77;3.57;;;13.40;99.90;;;;;;5068503;28;20420;-69
2021/04/13 12:41:25;;;;;;;3.50;3.30;;;13.00;99.90;;;;;;5068060;28;20836;-70
2021/04/13 12:43:57;;;;;;;3.67;3.37;;;12.70;99.90;;;;;;5067917;28;20431;-69
2021/04/13 12:46:31;;;;;;;4.20;3.90;;;12.60;99.90;;;;;;5067543;28;20459;-68
2021/04/13 12:49:10;;;;;;;3.40;3.10;;;12.50;99.90;;;;;;5068240;28;20419;-66
2021/04/13 12:51:53;;;;;;;3.30;3.00;;;12.10;99.90;;;;;;5067241;28;20419;-66
2021/04/13 12:54:37;;;;;;;3.50;3.20;;;11.90;99.90;;;;;;5067791;28;20431;-65
2021/04/13 12:57:21;;;;;;;3.73;3.53;;;11.80;99.90;;;;;;5068611;28;20415;-66
2021/04/13 12:59:49;;;;;;;5.73;3.60;;;11.50;99.90;;;;;;5066416;28;20426;-66
2021/04/13 13:02:47;;;;;;;3.77;3.47;;;11.70;99.90;;;;;;5067195;28;20471;-68
2021/04/13 13:05:19;;;;;;;3.47;3.20;;;11.70;99.90;;;;;;5068397;28;20451;-67
2021/04/13 13:07:57;;;;;;;3.50;3.20;;;11.90;99.90;;;;;;5067430;28;20434;-68
2021/04/13 13:10:50;;;;;;;3.87;3.57;;;12.10;99.90;;;;;;5068438;28;20427;-66
2021/04/13 13:13:22;;;;;;;4.30;3.90;;;11.80;99.90;;;;;;5064982;28;20442;-66
2021/04/13 13:15:49;;;;;;;4.43;4.13;;;11.50;99.90;;;;;;5068045;28;20414;-66
2021/04/13 13:18:29;;;;;;;4.03;3.73;;;11.50;99.90;;;;;;5067522;28;20457;-66
2021/04/13 13:20:59;;;;;;;3.33;3.13;;;11.60;99.90;;;;;;5066883;28;20411;-66
2021/04/13 13:23:35;;;;;;;3.07;2.87;;;11.60;99.90;;;;;;5067009;28;20421;-67
2021/04/13 13:26:14;;;;;;;3.80;3.50;;;11.60;99.90;;;;;;5067797;28;20468;-66
2021/04/13 13:28:43;;;;;;;3.37;3.07;;;11.30;99.90;;;;;;5067557;28;20457;-66
2021/04/13 13:31:15;;;;;;;6.30;3.57;;;10.90;99.90;;;;;;5067626;28;20415;-67
2021/04/13 13:33:42;;;;;;;3.40;3.13;;;10.80;99.90;;;;;;5068997;28;20427;-66
2021/04/13 13:36:08;;;;;;;2.77;2.57;;;10.70;99.90;;;;;;5065570;28;20473;-64
2021/04/13 13:38:37;;;;;;;6.37;2.43;;;10.60;99.90;;;;;;5067551;28;20431;-66
2021/04/13 13:41:04;;;;;;;3.37;3.13;;;10.80;99.90;;;;;;5067871;28;20415;-65
2021/04/13 13:43:33;;;;;;;3.10;2.67;;;11.10;99.90;;;;;;5064781;28;20526;-64
2021/04/13 13:46:28;;;;;;;3.43;2.63;;;11.70;99.90;;;;;;5068038;28;20808;-66